Terminal Aerodrome Forecast
Issued by NWS

Home | Current Version | Previous Version | Text Only | Print | Product List | Glossary On
Versions: 1 2 3 4 5 6 7 8 9 10 11 12 13 14 15 16 17 18 19 20 21 22 23
000
FTUS41 KCTP 132336
TAFLNS
TAF
KLNS 132336Z 1400/1424 25006KT P6SM BKN200
     FM140300 19006KT 2SM -SN BR OVC040
     FM141300 32007KT P6SM OVC050=

USA.gov is the U.S. government's official web portal to all federal, state and local government web resources and services.